createdAt,value
2019-01-12T00:01:22.043Z,100661.06
2019-01-12T00:03:52.832Z,100664.58
2019-01-12T00:06:23.605Z,100667.71
2019-01-12T00:08:54.477Z,100665.28
2019-01-12T00:11:25.250Z,100673.30
2019-01-12T00:13:56.132Z,100665.20
2019-01-12T00:16:28.178Z,100672.78
2019-01-12T00:18:59.272Z,100657.59
2019-01-12T00:21:30.109Z,100665.88
2019-01-12T00:24:00.910Z,100668.52
2019-01-12T00:26:31.743Z,100671.99
2019-01-12T00:29:02.530Z,100672.75
2019-01-12T00:31:33.316Z,100676.19
2019-01-12T00:34:04.410Z,100670.98
2019-01-12T00:36:35.409Z,100665.26
2019-01-12T00:39:08.193Z,100663.45
2019-01-12T00:41:38.966Z,100683.61
2019-01-12T00:44:10.085Z,100683.25
2019-01-12T00:46:40.866Z,100677.47
2019-01-12T00:49:11.886Z,100665.36
2019-01-12T00:51:42.659Z,100669.20
2019-01-12T00:54:13.675Z,100666.64
2019-01-12T00:56:44.798Z,100670.89
2019-01-12T00:59:15.665Z,100678.56
2019-01-12T01:01:46.770Z,100672.61
2019-01-12T01:04:17.964Z,100680.03
2019-01-12T01:06:48.732Z,100677.58
2019-01-12T01:09:19.749Z,100677.80
2019-01-12T01:11:50.820Z,100681.50
2019-01-12T01:14:21.622Z,100677.89
2019-01-12T01:16:52.489Z,100672.33
2019-01-12T01:19:23.279Z,100686.52
2019-01-12T01:21:54.298Z,100687.61
2019-01-12T01:24:25.350Z,100684.23
2019-01-12T01:26:56.429Z,100691.66
2019-01-12T01:29:28.257Z,100698.93
2019-01-12T01:31:59.037Z,100699.53
2019-01-12T01:34:30.142Z,100697.81
2019-01-12T01:37:00.936Z,100707.45
2019-01-12T01:39:32.026Z,100708.41
2019-01-12T01:42:02.877Z,100712.33
2019-01-12T01:44:33.877Z,100712.08
2019-01-12T01:47:05.053Z,100712.08
2019-01-12T01:49:35.820Z,100714.08
2019-01-12T01:52:06.696Z,100708.48
2019-01-12T01:54:37.722Z,100705.67
2019-01-12T01:57:08.558Z,100705.13
2019-01-12T01:59:39.333Z,100701.66
2019-01-12T02:02:11.030Z,100705.50
2019-01-12T02:04:41.804Z,100708.56
2019-01-12T02:07:12.639Z,100702.77
2019-01-12T02:09:43.404Z,100704.38
2019-01-12T02:12:14.236Z,100707.38
2019-01-12T02:14:45.340Z,100707.20
2019-01-12T02:17:16.271Z,100702.22
2019-01-12T02:19:47.114Z,100695.39
2019-01-12T02:22:18.182Z,100708.48
2019-01-12T02:24:48.976Z,100707.95
2019-01-12T02:27:19.937Z,100711.28
2019-01-12T02:29:50.702Z,100699.91
2019-01-12T02:32:21.468Z,100707.87
2019-01-12T02:34:52.232Z,100707.87
2019-01-12T02:37:23.369Z,100708.72
2019-01-12T02:39:54.143Z,100708.63
2019-01-12T02:42:24.899Z,100698.45
2019-01-12T02:44:55.676Z,100700.09
2019-01-12T02:47:26.521Z,100703.53
2019-01-12T02:49:57.285Z,100692.31
2019-01-12T02:52:28.127Z,100691.46
2019-01-12T02:54:59.380Z,100690.91
2019-01-12T02:57:30.222Z,100681.75
2019-01-12T03:00:01.008Z,100691.43
2019-01-12T03:02:32.151Z,100686.36
2019-01-12T03:05:02.923Z,100682.22
2019-01-12T03:07:33.911Z,100684.00
2019-01-12T03:10:05.872Z,100686.02
2019-01-12T03:12:36.916Z,100686.06
2019-01-12T03:15:09.762Z,100686.97
2019-01-12T03:17:40.749Z,100688.02
2019-01-12T03:20:13.490Z,100682.48
2019-01-12T03:22:44.928Z,100676.71
2019-01-12T03:25:18.608Z,100669.89
2019-01-12T03:27:48.895Z,100679.27
2019-01-12T03:30:20.081Z,100681.93
2019-01-12T03:32:50.873Z,100676.80
2019-01-12T03:35:22.036Z,100674.14
2019-01-12T03:37:53.296Z,100670.84
2019-01-12T03:40:24.074Z,100675.66
2019-01-12T03:42:56.282Z,100676.56
2019-01-12T03:45:27.451Z,100675.69
2019-01-12T03:47:58.474Z,100675.08
2019-01-12T03:50:29.694Z,100669.80
2019-01-12T03:53:01.864Z,100665.16
2019-01-12T03:55:32.940Z,100670.64
2019-01-12T03:58:04.084Z,100666.18
2019-01-12T04:00:35.425Z,100669.62
2019-01-12T04:03:06.525Z,100667.46
2019-01-12T04:05:37.298Z,100668.74
2019-01-12T04:08:08.633Z,100662.55
2019-01-12T04:10:39.422Z,100664.28
2019-01-12T04:13:10.182Z,100663.02
2019-01-12T04:15:40.946Z,100666.44
2019-01-12T04:18:12.029Z,100660.77
2019-01-12T04:20:42.803Z,100661.92
2019-01-12T04:23:13.736Z,100657.52
2019-01-12T04:25:44.587Z,100658.98
2019-01-12T04:28:15.424Z,100659.36
2019-01-12T04:30:46.457Z,100658.05
2019-01-12T04:33:17.447Z,100656.41
2019-01-12T04:35:48.225Z,100650.69
2019-01-12T04:38:19.054Z,100651.63
2019-01-12T04:40:50.112Z,100648.72
2019-01-12T04:43:20.865Z,100653.26
2019-01-12T04:45:51.643Z,100644.78
2019-01-12T04:48:22.638Z,100646.94
2019-01-12T04:50:53.404Z,100645.23
2019-01-12T04:53:24.178Z,100652.47
2019-01-12T04:55:55.161Z,100649.19
2019-01-12T04:58:25.923Z,100644.14
2019-01-12T05:00:56.694Z,100639.16
2019-01-12T05:03:27.458Z,100646.67
2019-01-12T05:05:58.473Z,100634.47
2019-01-12T05:08:29.282Z,100638.45
2019-01-12T05:11:00.047Z,100628.66
2019-01-12T05:13:31.073Z,100623.96
2019-01-12T05:16:01.837Z,100622.59
2019-01-12T05:18:32.606Z,100625.03
2019-01-12T05:21:03.373Z,100624.50
2019-01-12T05:23:34.203Z,100623.43
2019-01-12T05:26:05.952Z,100631.13
2019-01-12T05:28:36.942Z,100630.91
2019-01-12T05:31:07.705Z,100621.96
2019-01-12T05:33:38.463Z,100625.25
2019-01-12T05:36:09.316Z,100629.88
2019-01-12T05:38:40.143Z,100634.55
2019-01-12T05:41:10.913Z,100638.14
2019-01-12T05:43:41.718Z,100638.52
2019-01-12T05:46:12.792Z,100641.13
2019-01-12T05:48:43.623Z,100639.96
2019-01-12T05:51:14.609Z,100642.09
2019-01-12T05:53:45.606Z,100636.83
2019-01-12T05:56:16.612Z,100637.39
2019-01-12T05:58:47.827Z,100634.77
2019-01-12T06:01:18.597Z,100636.42
2019-01-12T06:03:49.347Z,100634.45
2019-01-12T06:06:20.118Z,100630.45
2019-01-12T06:08:50.943Z,100630.91
2019-01-12T06:11:21.948Z,100626.16
2019-01-12T06:13:52.975Z,100623.56
2019-01-12T06:16:23.819Z,100630.45
2019-01-12T06:18:54.939Z,100633.66
2019-01-12T06:21:25.948Z,100633.66
2019-01-12T06:23:56.708Z,100635.86
2019-01-12T06:26:27.540Z,100637.52
2019-01-12T06:28:58.317Z,100640.49
2019-01-12T06:31:29.077Z,100636.08
2019-01-12T06:34:00.069Z,100636.17
2019-01-12T06:36:30.858Z,100640.80
2019-01-12T06:39:02.880Z,100644.84
2019-01-12T06:41:34.062Z,100637.14
2019-01-12T06:44:05.347Z,100638.80
2019-01-12T06:46:36.186Z,100643.94
2019-01-12T06:49:06.949Z,100649.76
2019-01-12T06:51:37.796Z,100637.08
2019-01-12T06:54:08.926Z,100644.13
2019-01-12T06:56:39.931Z,100644.09
2019-01-12T06:59:11.227Z,100647.34
2019-01-12T07:01:42.300Z,100641.09
2019-01-12T07:04:13.360Z,100652.39
2019-01-12T07:06:44.441Z,100648.20
2019-01-12T07:09:15.452Z,100660.34
2019-01-12T07:11:46.235Z,100649.16
2019-01-12T07:14:16.994Z,100652.73
2019-01-12T07:16:47.828Z,100649.16
2019-01-12T07:19:18.593Z,100654.67
2019-01-12T07:21:49.363Z,100647.00
2019-01-12T07:24:20.349Z,100647.88
2019-01-12T07:26:52.129Z,100646.13
2019-01-12T07:29:22.925Z,100646.59
2019-01-12T07:31:53.920Z,100649.88
2019-01-12T07:34:25.681Z,100649.35
2019-01-12T07:36:56.443Z,100651.11
2019-01-12T07:39:27.429Z,100655.02
2019-01-12T07:41:58.201Z,100652.27
2019-01-12T07:44:29.598Z,100650.73
2019-01-12T07:47:00.591Z,100651.48
2019-01-12T07:49:31.653Z,100657.20
2019-01-12T07:52:02.510Z,100663.59
2019-01-12T07:54:33.271Z,100660.28
2019-01-12T07:57:04.124Z,100662.53
2019-01-12T07:59:34.871Z,100655.58
2019-01-12T08:02:05.767Z,100666.44
2019-01-12T08:04:37.128Z,100662.36
2019-01-12T08:07:07.975Z,100663.83
2019-01-12T08:09:38.963Z,100664.94
2019-01-12T08:12:10.018Z,100662.62
2019-01-12T08:14:41.001Z,100667.04
2019-01-12T08:17:11.844Z,100664.94
2019-01-12T08:19:42.871Z,100660.45
2019-01-12T08:22:13.713Z,100662.48
2019-01-12T08:24:44.539Z,100653.59
2019-01-12T08:27:15.312Z,100643.82
2019-01-12T08:29:46.132Z,100659.47
2019-01-12T08:32:16.980Z,100658.53
2019-01-12T08:34:47.984Z,100655.95
2019-01-12T08:37:18.957Z,100648.94
2019-01-12T08:39:49.717Z,100647.36
2019-01-12T08:42:20.480Z,100646.28
2019-01-12T08:44:51.358Z,100642.76
2019-01-12T08:47:22.433Z,100641.33
2019-01-12T08:49:53.269Z,100637.52
2019-01-12T08:52:24.606Z,100633.25
2019-01-12T08:54:55.374Z,100631.53
2019-01-12T08:57:26.568Z,100635.19
2019-01-12T08:59:57.581Z,100633.11
2019-01-12T09:02:28.413Z,100629.55
2019-01-12T09:04:59.162Z,100626.58
2019-01-12T09:07:30.204Z,100623.78
2019-01-12T09:10:01.067Z,100629.25
2019-01-12T09:12:31.991Z,100622.69
2019-01-12T09:15:03.044Z,100626.17
2019-01-12T09:17:34.160Z,100629.15
2019-01-12T09:20:06.425Z,100621.10
2019-01-12T09:22:37.611Z,100620.55
2019-01-12T09:25:09.539Z,100618.72
2019-01-12T09:27:40.623Z,100616.05
2019-01-12T09:30:14.207Z,100608.47
2019-01-12T09:32:45.061Z,100607.59
2019-01-12T09:35:16.078Z,100599.07
2019-01-12T09:37:46.934Z,100608.03
2019-01-12T09:40:19.246Z,100607.70
2019-01-12T09:42:50.195Z,100592.83
2019-01-12T09:45:22.078Z,100591.84
2019-01-12T09:47:53.076Z,100587.54
2019-01-12T09:50:23.924Z,100582.33
2019-01-12T09:52:55.046Z,100579.45
2019-01-12T09:55:26.339Z,100572.84
2019-01-12T09:57:57.147Z,100580.84
2019-01-12T10:00:28.179Z,100586.11
2019-01-12T10:02:59.256Z,100574.61
2019-01-12T10:05:30.059Z,100558.98
2019-01-12T10:08:01.099Z,100567.69
2019-01-12T10:10:31.920Z,100566.85
2019-01-12T10:13:02.729Z,100546.00
2019-01-12T10:15:33.737Z,100541.09
2019-01-12T10:18:04.898Z,100536.39
2019-01-12T10:20:35.657Z,100545.39
2019-01-12T10:23:06.592Z,100526.50
2019-01-12T10:25:37.646Z,100533.22
2019-01-12T10:28:09.052Z,100524.48
2019-01-12T10:30:39.816Z,100525.62
2019-01-12T10:33:10.685Z,100516.61
2019-01-12T10:35:41.443Z,100513.47
2019-01-12T10:38:12.678Z,100515.16
2019-01-12T10:40:44.028Z,100516.81
2019-01-12T10:43:14.811Z,100524.71
2019-01-12T10:45:45.907Z,100530.95
2019-01-12T10:48:16.672Z,100547.34
2019-01-12T10:50:47.446Z,100558.13
2019-01-12T10:53:18.578Z,100551.11
2019-01-12T10:55:49.636Z,100536.59
2019-01-12T10:58:20.739Z,100505.02
2019-01-12T11:00:51.732Z,100510.88
2019-01-12T11:03:22.945Z,100511.77
2019-01-12T11:05:54.029Z,100488.25
2019-01-12T11:08:25.016Z,100486.56
2019-01-12T11:10:57.427Z,100481.30
2019-01-12T11:13:28.327Z,100465.42
2019-01-12T11:15:59.143Z,100474.83
2019-01-12T11:18:30.206Z,100469.47
2019-01-12T11:21:02.464Z,100464.84
2019-01-12T11:23:33.521Z,100449.64
2019-01-12T11:26:04.737Z,100450.02
2019-01-12T11:28:35.861Z,100446.16
2019-01-12T11:31:07.026Z,100436.63
2019-01-12T11:33:37.778Z,100441.33
2019-01-12T11:36:08.883Z,100436.58
2019-01-12T11:38:39.630Z,100435.66
2019-01-12T11:41:10.664Z,100435.14
2019-01-12T11:43:41.419Z,100430.00
2019-01-12T11:46:12.192Z,100434.98
2019-01-12T11:48:43.661Z,100435.39
2019-01-12T11:51:14.849Z,100440.13
2019-01-12T11:53:45.864Z,100435.83
2019-01-12T11:56:16.625Z,100438.17
2019-01-12T11:58:47.615Z,100435.83
2019-01-12T12:01:18.499Z,100434.66
2019-01-12T12:03:49.485Z,100430.80
2019-01-12T12:06:20.715Z,100444.39
2019-01-12T12:08:51.487Z,100430.36
2019-01-12T12:11:22.261Z,100432.22
2019-01-12T12:13:53.263Z,100423.50
2019-01-12T12:16:24.048Z,100411.16
2019-01-12T12:18:55.113Z,100408.59
2019-01-12T12:21:27.627Z,100402.32
2019-01-12T12:23:58.930Z,100403.93
2019-01-12T12:26:29.868Z,100399.06
2019-01-12T12:29:00.821Z,100403.44
2019-01-12T12:31:31.847Z,100404.92
2019-01-12T12:34:02.829Z,100403.44
2019-01-12T12:36:33.609Z,100385.77
2019-01-12T12:39:06.887Z,100377.94
2019-01-12T12:41:37.733Z,100371.66
2019-01-12T12:44:08.720Z,100372.33
2019-01-12T12:46:39.500Z,100355.85
2019-01-12T12:49:11.460Z,100350.98
2019-01-12T12:51:42.475Z,100328.84
2019-01-12T12:54:13.731Z,100341.61
2019-01-12T12:56:44.591Z,100328.97
2019-01-12T12:59:16.022Z,100320.09
2019-01-12T13:01:46.951Z,100317.64
2019-01-12T13:04:17.734Z,100309.30
2019-01-12T13:06:48.740Z,100309.04
2019-01-12T13:09:19.845Z,100306.78
2019-01-12T13:11:50.855Z,100297.77
2019-01-12T13:14:21.764Z,100293.21
2019-01-12T13:16:52.562Z,100292.45
2019-01-12T13:19:23.384Z,100286.34
2019-01-12T13:21:54.715Z,100277.41
2019-01-12T13:24:25.717Z,100272.77
2019-01-12T13:26:56.486Z,100271.48
2019-01-12T13:29:27.890Z,100276.31
2019-01-12T13:31:58.629Z,100274.19
2019-01-12T13:34:29.679Z,100259.02
2019-01-12T13:37:01.008Z,100256.32
2019-01-12T13:39:32.200Z,100246.92
2019-01-12T13:42:03.190Z,100238.49
2019-01-12T13:44:34.025Z,100226.03
2019-01-12T13:47:04.878Z,100223.72
2019-01-12T13:49:35.637Z,100216.94
2019-01-12T13:52:06.487Z,100213.03
2019-01-12T13:54:37.490Z,100215.92
2019-01-12T13:57:08.260Z,100225.58
2019-01-12T13:59:39.025Z,100221.77
2019-01-12T14:02:10.034Z,100214.05
2019-01-12T14:04:40.939Z,100224.30
2019-01-12T14:07:11.933Z,100224.79
2019-01-12T14:09:42.694Z,100220.48
2019-01-12T14:12:13.466Z,100223.63
2019-01-12T14:14:44.225Z,100217.16
2019-01-12T14:17:15.080Z,100213.87
2019-01-12T14:19:45.915Z,100209.70
2019-01-12T14:22:17.156Z,100204.02
2019-01-12T14:24:47.922Z,100204.73
2019-01-12T14:27:18.956Z,100208.45
2019-01-12T14:29:50.678Z,100207.70
2019-01-12T14:32:21.474Z,100198.30
2019-01-12T14:34:52.472Z,100202.30
2019-01-12T14:37:23.478Z,100180.20
2019-01-12T14:39:54.233Z,100183.84
2019-01-12T14:42:25.003Z,100172.97
2019-01-12T14:44:55.988Z,100160.09
2019-01-12T14:47:27.025Z,100163.03
2019-01-12T14:49:57.868Z,100159.13
2019-01-12T14:52:28.787Z,100155.17
2019-01-12T14:55:00.099Z,100140.72
2019-01-12T14:57:30.931Z,100142.17
2019-01-12T15:00:02.104Z,100135.56
2019-01-12T15:02:33.905Z,100132.69
2019-01-12T15:05:05.726Z,100117.11
2019-01-12T15:07:36.793Z,100106.38
2019-01-12T15:10:09.069Z,100105.39
2019-01-12T15:12:39.990Z,100088.97
2019-01-12T15:15:11.522Z,100090.20
2019-01-12T15:17:42.288Z,100080.64
2019-01-12T15:20:18.962Z,100080.66
2019-01-12T15:22:49.881Z,100087.19
2019-01-12T15:25:21.125Z,100084.08
2019-01-12T15:27:53.220Z,100081.06
2019-01-12T15:30:31.500Z,100084.77
2019-01-12T15:33:04.874Z,100079.88
2019-01-12T15:35:36.839Z,100073.88
2019-01-12T15:38:07.916Z,100080.05
2019-01-12T15:40:38.746Z,100068.48
2019-01-12T15:43:09.744Z,100071.30
2019-01-12T15:45:40.510Z,100071.66
2019-01-12T15:48:11.435Z,100072.33
2019-01-12T15:50:42.425Z,100066.66
2019-01-12T15:53:13.340Z,100069.88
2019-01-12T15:55:44.169Z,100068.94
2019-01-12T15:58:16.353Z,100059.20
2019-01-12T16:00:47.252Z,100057.08
2019-01-12T16:03:18.363Z,100051.31
2019-01-12T16:05:49.495Z,100062.56
2019-01-12T16:08:20.263Z,100046.03
2019-01-12T16:10:51.341Z,100049.05
2019-01-12T16:13:22.191Z,100038.61
2019-01-12T16:15:53.055Z,100041.63
2019-01-12T16:18:24.174Z,100041.59
2019-01-12T16:20:54.925Z,100036.77
2019-01-12T16:23:25.770Z,100028.36
2019-01-12T16:25:56.762Z,100023.42
2019-01-12T16:28:27.780Z,100022.12
2019-01-12T16:30:58.579Z,100022.67
2019-01-12T16:33:29.334Z,100018.56
2019-01-12T16:36:00.454Z,100020.94
2019-01-12T16:38:31.228Z,100015.25
2019-01-12T16:41:02.623Z,100009.80
2019-01-12T16:43:33.411Z,100006.77
2019-01-12T16:46:04.300Z,100008.45
2019-01-12T16:48:35.318Z,100007.97
2019-01-12T16:51:06.081Z,100006.56
2019-01-12T16:53:36.860Z,100004.80
2019-01-12T16:56:07.628Z,100011.33
2019-01-12T16:58:38.538Z,100013.90
2019-01-12T17:01:09.767Z,100007.61
2019-01-12T17:03:40.797Z,100007.38
2019-01-12T17:06:11.707Z,100005.88
2019-01-12T17:08:42.772Z,100004.11
2019-01-12T17:11:13.548Z,99989.17
2019-01-12T17:13:44.311Z,99995.52
2019-01-12T17:16:15.359Z,99986.96
2019-01-12T17:18:48.622Z,99975.88
2019-01-12T17:21:19.446Z,99977.41
2019-01-12T17:23:50.316Z,99969.14
2019-01-12T17:26:22.037Z,99977.27
2019-01-12T17:28:52.934Z,99962.63
2019-01-12T17:31:24.018Z,99945.44
2019-01-12T17:33:55.058Z,99963.22
2019-01-12T17:36:25.950Z,99960.65
2019-01-12T17:38:56.710Z,99949.30
2019-01-12T17:41:27.603Z,99956.19
2019-01-12T17:43:59.333Z,99954.00
2019-01-12T17:46:30.346Z,99951.88
2019-01-12T17:49:01.212Z,99944.78
2019-01-12T17:51:32.195Z,99937.88
2019-01-12T17:54:03.829Z,99945.44
2019-01-12T17:56:35.609Z,99946.20
2019-01-12T17:59:06.767Z,99947.42
2019-01-12T18:01:37.587Z,99940.98
2019-01-12T18:04:08.513Z,99943.92
2019-01-12T18:06:39.482Z,99932.78
2019-01-12T18:09:10.729Z,99921.69
2019-01-12T18:11:41.732Z,99926.83
2019-01-12T18:14:12.743Z,99924.55
2019-01-12T18:16:43.727Z,99919.63
2019-01-12T18:19:14.864Z,99929.23
2019-01-12T18:21:45.990Z,99928.39
2019-01-12T18:27:49.894Z,99925.30
2019-01-12T18:30:21.863Z,99918.87
2019-01-12T18:32:52.811Z,99915.40
2019-01-12T18:35:24.054Z,99903.13
2019-01-12T18:37:54.798Z,99910.02
2019-01-12T18:40:25.814Z,99908.63
2019-01-12T18:42:57.084Z,99904.33
2019-01-12T18:45:28.061Z,99900.47
2019-01-12T18:47:59.042Z,99899.88
2019-01-12T18:50:30.143Z,99893.34
2019-01-12T18:53:01.299Z,99887.59
2019-01-12T18:55:32.250Z,99882.84
2019-01-12T18:58:03.183Z,99885.92
2019-01-12T19:00:34.376Z,99870.71
2019-01-12T19:03:05.514Z,99871.92
2019-01-12T19:05:36.643Z,99863.45
2019-01-12T19:08:07.602Z,99857.25
2019-01-12T19:10:38.673Z,99854.38
2019-01-12T19:13:09.499Z,99850.97
2019-01-12T19:15:40.335Z,99857.17
2019-01-12T19:18:11.419Z,99850.73
2019-01-12T19:20:42.407Z,99839.31
2019-01-12T19:23:13.270Z,99844.02
2019-01-12T19:25:44.035Z,99837.12
2019-01-12T19:28:14.773Z,99834.91
2019-01-12T19:30:45.760Z,99825.55
2019-01-12T19:33:16.748Z,99829.02
2019-01-12T19:35:47.571Z,99822.82
2019-01-12T19:38:18.726Z,99819.47
2019-01-12T19:40:49.730Z,99818.34
2019-01-12T19:43:20.707Z,99818.57
2019-01-12T19:45:51.789Z,99824.71
2019-01-12T19:48:22.799Z,99829.53
2019-01-12T19:50:53.836Z,99821.97
2019-01-12T19:53:24.581Z,99829.47
2019-01-12T19:55:55.327Z,99824.03
2019-01-12T19:58:26.377Z,99832.64
2019-01-12T20:00:57.457Z,99833.39
2019-01-12T20:03:28.436Z,99831.75
2019-01-12T20:05:59.255Z,99829.92
2019-01-12T20:08:30.263Z,99831.20
2019-01-12T20:11:01.317Z,99828.19
2019-01-12T20:13:32.122Z,99827.28
2019-01-12T20:16:03.041Z,99826.45
2019-01-12T20:18:33.781Z,99827.73
2019-01-12T20:21:04.549Z,99839.31
2019-01-12T20:23:35.306Z,99834.08
2019-01-12T20:26:06.213Z,99825.23
2019-01-12T20:28:37.332Z,99829.53
2019-01-12T20:31:47.235Z,99828.24
2019-01-12T20:34:27.023Z,99826.51
2019-01-12T20:37:40.771Z,99820.41
2019-01-12T20:40:39.545Z,99826.14
2019-01-12T20:43:42.836Z,99817.28
2019-01-12T20:46:32.819Z,99804.81
2019-01-12T20:49:31.584Z,99804.27
2019-01-12T20:52:46.116Z,99805.39
2019-01-12T20:56:02.826Z,99802.44
2019-01-12T20:59:08.332Z,99798.52
2019-01-12T21:02:15.195Z,99791.62
2019-01-12T21:05:05.417Z,99786.33
2019-01-12T21:08:23.432Z,99780.56
2019-01-12T21:11:26.034Z,99776.39
2019-01-12T21:14:08.333Z,99774.03
2019-01-12T21:16:46.299Z,99769.86
2019-01-12T21:19:17.040Z,99768.56
2019-01-12T21:21:47.790Z,99765.93
2019-01-12T21:24:18.768Z,99771.14
2019-01-12T21:26:49.598Z,99770.34
2019-01-12T21:29:20.326Z,99769.34
2019-01-12T21:31:51.618Z,99762.00
2019-01-12T21:34:22.498Z,99765.93
2019-01-12T21:36:53.316Z,99769.25
2019-01-12T21:39:24.048Z,99760.39
2019-01-12T21:41:55.095Z,99768.12
2019-01-12T21:44:26.149Z,99752.41
2019-01-12T21:46:56.965Z,99748.27
2019-01-12T21:49:28.119Z,99743.56
2019-01-12T21:51:59.016Z,99745.91
2019-01-12T21:54:30.220Z,99740.53
2019-01-12T21:57:01.176Z,99741.83
2019-01-12T21:59:31.930Z,99744.50
2019-01-12T22:02:02.888Z,99741.05
2019-01-12T22:04:33.878Z,99738.57
2019-01-12T22:07:04.791Z,99736.89
2019-01-12T22:09:35.820Z,99733.28
2019-01-12T22:12:06.791Z,99728.78
2019-01-12T22:14:37.541Z,99729.42
2019-01-12T22:17:08.530Z,99724.31
2019-01-12T22:19:39.265Z,99733.77
2019-01-12T22:22:10.025Z,99729.34
2019-01-12T22:24:41.964Z,99729.12
2019-01-12T22:27:13.068Z,99734.39
2019-01-12T22:29:49.723Z,99725.61
2019-01-12T22:32:16.357Z,99727.61
2019-01-12T22:34:47.099Z,99729.23
2019-01-12T22:37:17.860Z,99719.94
2019-01-12T22:39:48.832Z,99711.37
2019-01-12T22:42:19.709Z,99707.39
2019-01-12T22:44:50.717Z,99710.54
2019-01-12T22:47:21.540Z,99710.82
2019-01-12T22:49:52.282Z,99710.92
2019-01-12T22:52:23.035Z,99712.39
2019-01-12T22:54:53.841Z,99707.62
2019-01-12T22:57:24.592Z,99691.27
2019-01-12T22:59:57.085Z,99697.61
2019-01-12T23:02:28.028Z,99691.27
2019-01-12T23:04:58.765Z,99690.88
2019-01-12T23:07:29.590Z,99696.80
2019-01-12T23:10:00.433Z,99702.30
2019-01-12T23:12:31.474Z,99693.29
2019-01-12T23:15:02.213Z,99691.65
2019-01-12T23:17:34.794Z,99691.72
2019-01-12T23:20:06.321Z,99695.63
2019-01-12T23:22:37.081Z,99691.83
2019-01-12T23:25:07.921Z,99694.36
2019-01-12T23:27:38.852Z,99689.25
2019-01-12T23:30:11.242Z,99683.41
2019-01-12T23:32:42.152Z,99681.36
2019-01-12T23:35:13.154Z,99683.66
2019-01-12T23:37:44.006Z,99671.81
2019-01-12T23:40:14.990Z,99674.78
2019-01-12T23:42:46.037Z,99669.98
2019-01-12T23:45:17.082Z,99675.34
2019-01-12T23:47:47.839Z,99678.30
2019-01-12T23:50:18.589Z,99665.03
2019-01-12T23:52:49.355Z,99662.45
2019-01-12T23:55:20.171Z,99656.75
2019-01-12T23:57:51.170Z,99654.03
